sensor_id;sensor_type;location;lat;lon;timestamp;pressure;altitude;pressure_sealevel;temperature;humidity
44138;BME280;29800;55.942;37.314;2023-12-20T00:00:02;97605.25;;;5.19;78.05
44138;BME280;29800;55.942;37.314;2023-12-20T00:02:31;97616.34;;;5.12;77.97
44138;BME280;29800;55.942;37.314;2023-12-20T00:04:58;97619.84;;;5.08;78.12
44138;BME280;29800;55.942;37.314;2023-12-20T00:07:24;97622.03;;;5.06;78.02
44138;BME280;29800;55.942;37.314;2023-12-20T00:09:50;97616.31;;;5.02;78.23
44138;BME280;29800;55.942;37.314;2023-12-20T00:12:16;97619.03;;;5.02;78.32
44138;BME280;29800;55.942;37.314;2023-12-20T00:14:42;97625.25;;;4.97;77.89
44138;BME280;29800;55.942;37.314;2023-12-20T00:17:08;97641.53;;;4.97;78.06
44138;BME280;29800;55.942;37.314;2023-12-20T00:19:35;97632.84;;;5.01;78.08
44138;BME280;29800;55.942;37.314;2023-12-20T00:22:01;97633.94;;;5.00;77.93
44138;BME280;29800;55.942;37.314;2023-12-20T00:24:27;97634.22;;;5.03;77.97
44138;BME280;29800;55.942;37.314;2023-12-20T00:26:53;97634.78;;;5.10;77.92
44138;BME280;29800;55.942;37.314;2023-12-20T00:29:19;97635.59;;;5.11;77.99
44138;BME280;29800;55.942;37.314;2023-12-20T00:31:45;97638.56;;;5.09;77.64
44138;BME280;29800;55.942;37.314;2023-12-20T00:34:12;97646.41;;;5.01;77.49
44138;BME280;29800;55.942;37.314;2023-12-20T00:36:38;97640.44;;;4.99;77.40
44138;BME280;29800;55.942;37.314;2023-12-20T00:39:04;97640.44;;;4.99;77.73
44138;BME280;29800;55.942;37.314;2023-12-20T00:41:30;97642.59;;;5.02;77.62
44138;BME280;29800;55.942;37.314;2023-12-20T00:43:56;97648.03;;;5.02;77.64
44138;BME280;29800;55.942;37.314;2023-12-20T00:46:22;97639.88;;;4.96;77.46
44138;BME280;29800;55.942;37.314;2023-12-20T00:48:49;97641.53;;;4.97;77.58
44138;BME280;29800;55.942;37.314;2023-12-20T00:51:15;97636.63;;;4.94;77.53
44138;BME280;29800;55.942;37.314;2023-12-20T00:53:41;97633.38;;;4.92;77.28
44138;BME280;29800;55.942;37.314;2023-12-20T00:56:07;97636.34;;;4.91;77.75
44138;BME280;29800;55.942;37.314;2023-12-20T00:58:34;97627.66;;;4.89;77.65
44138;BME280;29800;55.942;37.314;2023-12-20T01:01:00;97622.50;;;4.87;77.62
44138;BME280;29800;55.942;37.314;2023-12-20T01:03:26;97624.63;;;4.80;77.63
44138;BME280;29800;55.942;37.314;2023-12-20T01:05:52;97622.75;;;4.81;77.67
44138;BME280;29800;55.942;37.314;2023-12-20T01:08:19;97621.91;;;4.75;77.69
44138;BME280;29800;55.942;37.314;2023-12-20T01:10:45;97620.03;;;4.81;77.67
44138;BME280;29800;55.942;37.314;2023-12-20T01:13:12;97623.84;;;4.85;77.83
44138;BME280;29800;55.942;37.314;2023-12-20T01:15:38;97622.25;;;4.89;77.48
44138;BME280;29800;55.942;37.314;2023-12-20T01:18:05;97607.59;;;4.95;77.33
44138;BME280;29800;55.942;37.314;2023-12-20T01:20:31;97600.03;;;4.97;76.67
44138;BME280;29800;55.942;37.314;2023-12-20T01:22:57;97597.34;;;5.02;76.55
44138;BME280;29800;55.942;37.314;2023-12-20T01:25:23;97600.06;;;5.02;76.19
44138;BME280;29800;55.942;37.314;2023-12-20T01:27:50;97596.81;;;5.00;76.09
44138;BME280;29800;55.942;37.314;2023-12-20T01:30:16;97595.97;;;5.00;76.33
44138;BME280;29800;55.942;37.314;2023-12-20T01:32:42;97594.34;;;4.99;76.31
44138;BME280;29800;55.942;37.314;2023-12-20T01:35:08;97605.72;;;4.95;76.32
44138;BME280;29800;55.942;37.314;2023-12-20T01:37:34;97602.75;;;4.97;76.06
44138;BME280;29800;55.942;37.314;2023-12-20T01:40:01;97593.78;;;4.91;75.65
44138;BME280;29800;55.942;37.314;2023-12-20T01:42:29;97589.72;;;4.89;76.20
44138;BME280;29800;55.942;37.314;2023-12-20T01:44:55;97583.97;;;4.85;76.24
44138;BME280;29800;55.942;37.314;2023-12-20T01:47:21;97578.03;;;4.83;76.77
44138;BME280;29800;55.942;37.314;2023-12-20T01:49:49;97585.34;;;4.83;76.92
44138;BME280;29800;55.942;37.314;2023-12-20T01:52:16;97593.75;;;4.81;76.90
44138;BME280;29800;55.942;37.314;2023-12-20T01:54:42;97589.97;;;4.87;77.07
44138;BME280;29800;55.942;37.314;2023-12-20T01:57:09;97590.78;;;4.93;77.20
44138;BME280;29800;55.942;37.314;2023-12-20T01:59:36;97583.78;;;4.97;76.67
44138;BME280;29800;55.942;37.314;2023-12-20T02:02:03;97570.50;;;5.01;76.94
44138;BME280;29800;55.942;37.314;2023-12-20T02:04:29;97573.75;;;5.03;76.59
44138;BME280;29800;55.942;37.314;2023-12-20T02:06:56;97568.34;;;5.13;76.34
44138;BME280;29800;55.942;37.314;2023-12-20T02:09:23;97567.81;;;5.16;76.22
44138;BME280;29800;55.942;37.314;2023-12-20T02:11:49;97560.78;;;5.20;75.97
44138;BME280;29800;55.942;37.314;2023-12-20T02:14:16;97563.50;;;5.20;75.93
44138;BME280;29800;55.942;37.314;2023-12-20T02:16:42;97559.13;;;5.14;75.88
44138;BME280;29800;55.942;37.314;2023-12-20T02:19:13;97558.06;;;5.20;76.38
44138;BME280;29800;55.942;37.314;2023-12-20T02:21:40;97557.81;;;5.17;76.23
44138;BME280;29800;55.942;37.314;2023-12-20T02:24:06;97555.38;;;5.20;75.82
44138;BME280;29800;55.942;37.314;2023-12-20T02:26:33;97568.06;;;5.14;75.64
44138;BME280;29800;55.942;37.314;2023-12-20T02:29:00;97564.03;;;5.17;75.95
44138;BME280;29800;55.942;37.314;2023-12-20T02:31:26;97563.50;;;5.20;75.59
44138;BME280;29800;55.942;37.314;2023-12-20T02:33:52;97565.69;;;5.23;75.92
44138;BME280;29800;55.942;37.314;2023-12-20T02:36:18;97557.53;;;5.23;75.39
44138;BME280;29800;55.942;37.314;2023-12-20T02:38:44;97558.63;;;5.22;75.83
44138;BME280;29800;55.942;37.314;2023-12-20T02:41:11;97559.69;;;5.16;75.57
44138;BME280;29800;55.942;37.314;2023-12-20T02:43:37;97553.19;;;5.17;75.61
44138;BME280;29800;55.942;37.314;2023-12-20T02:46:03;97558.06;;;5.15;75.80
44138;BME280;29800;55.942;37.314;2023-12-20T02:48:29;97552.06;;;5.13;75.68
44138;BME280;29800;55.942;37.314;2023-12-20T02:50:55;97558.59;;;5.17;75.88
44138;BME280;29800;55.942;37.314;2023-12-20T02:53:21;97556.69;;;5.12;76.02
44138;BME280;29800;55.942;37.314;2023-12-20T02:55:48;97553.44;;;5.10;76.00
44138;BME280;29800;55.942;37.314;2023-12-20T02:58:14;97553.69;;;5.04;75.94
44138;BME280;29800;55.942;37.314;2023-12-20T03:00:40;97554.78;;;5.03;76.24
44138;BME280;29800;55.942;37.314;2023-12-20T03:03:06;97545.00;;;5.02;76.04
44138;BME280;29800;55.942;37.314;2023-12-20T03:05:32;97545.00;;;5.02;76.00
44138;BME280;29800;55.942;37.314;2023-12-20T03:07:58;97550.66;;;4.95;76.39
44138;BME280;29800;55.942;37.314;2023-12-20T03:10:25;97550.13;;;4.88;76.97
44138;BME280;29800;55.942;37.314;2023-12-20T03:12:51;97556.88;;;4.85;77.21
44138;BME280;29800;55.942;37.314;2023-12-20T03:15:17;97551.69;;;4.78;77.43
44138;BME280;29800;55.942;37.314;2023-12-20T03:17:43;97558.47;;;4.71;77.68
44138;BME280;29800;55.942;37.314;2023-12-20T03:20:09;97555.16;;;4.64;78.24
44138;BME280;29800;55.942;37.314;2023-12-20T03:22:36;97556.28;;;4.63;78.60
44138;BME280;29800;55.942;37.314;2023-12-20T03:25:02;97553.56;;;4.63;78.35
44138;BME280;29800;55.942;37.314;2023-12-20T03:27:29;97561.13;;;4.60;78.47
44138;BME280;29800;55.942;37.314;2023-12-20T03:29:56;97559.22;;;4.56;78.69
44138;BME280;29800;55.942;37.314;2023-12-20T03:32:22;97560.56;;;4.53;78.92
44138;BME280;29800;55.942;37.314;2023-12-20T03:34:48;97564.66;;;4.56;78.94
44138;BME280;29800;55.942;37.314;2023-12-20T03:37:14;97566.78;;;4.54;78.76
44138;BME280;29800;55.942;37.314;2023-12-20T03:39:40;97557.31;;;4.51;78.48
44138;BME280;29800;55.942;37.314;2023-12-20T03:42:06;97559.22;;;4.56;79.14
44138;BME280;29800;55.942;37.314;2023-12-20T03:44:32;97553.56;;;4.63;78.83
44138;BME280;29800;55.942;37.314;2023-12-20T03:46:59;97552.72;;;4.62;78.59
44138;BME280;29800;55.942;37.314;2023-12-20T03:49:25;97550.81;;;4.57;78.53
44138;BME280;29800;55.942;37.314;2023-12-20T03:51:51;97563.56;;;4.62;78.74
44138;BME280;29800;55.942;37.314;2023-12-20T03:54:18;97557.34;;;4.62;78.70
44138;BME280;29800;55.942;37.314;2023-12-20T03:56:44;97571.44;;;4.64;78.83
44138;BME280;29800;55.942;37.314;2023-12-20T03:59:10;97572.03;;;4.71;78.76
44138;BME280;29800;55.942;37.314;2023-12-20T04:01:36;97559.28;;;4.71;78.33
44138;BME280;29800;55.942;37.314;2023-12-20T04:04:02;97559.53;;;4.70;78.81
44138;BME280;29800;55.942;37.314;2023-12-20T04:06:29;97561.19;;;4.71;78.40
44138;BME280;29800;55.942;37.314;2023-12-20T04:08:55;97558.50;;;4.76;78.32
44138;BME280;29800;55.942;37.314;2023-12-20T04:11:21;97565.00;;;4.80;78.18
44138;BME280;29800;55.942;37.314;2023-12-20T04:13:47;97557.69;;;4.81;78.09
44138;BME280;29800;55.942;37.314;2023-12-20T04:16:13;97556.59;;;4.82;78.21
44138;BME280;29800;55.942;37.314;2023-12-20T04:18:39;97566.38;;;4.83;78.26
44138;BME280;29800;55.942;37.314;2023-12-20T04:21:06;97564.19;;;4.79;77.67
44138;BME280;29800;55.942;37.314;2023-12-20T04:23:33;97569.59;;;4.74;77.99
44138;BME280;29800;55.942;37.314;2023-12-20T04:25:59;97567.91;;;4.63;78.29
44138;BME280;29800;55.942;37.314;2023-12-20T04:28:25;97579.00;;;4.62;78.32
44138;BME280;29800;55.942;37.314;2023-12-20T04:30:51;97579.03;;;4.67;78.65
44138;BME280;29800;55.942;37.314;2023-12-20T04:33:17;97572.28;;;4.69;78.72
44138;BME280;29800;55.942;37.314;2023-12-20T04:35:44;97576.91;;;4.74;78.38
44138;BME280;29800;55.942;37.314;2023-12-20T04:38:11;97578.53;;;4.75;78.42
44138;BME280;29800;55.942;37.314;2023-12-20T04:40:37;97588.84;;;4.78;78.31
44138;BME280;29800;55.942;37.314;2023-12-20T04:43:05;97583.41;;;4.78;78.12
44138;BME280;29800;55.942;37.314;2023-12-20T04:45:31;97592.94;;;4.81;77.87
44138;BME280;29800;55.942;37.314;2023-12-20T04:47:57;97589.38;;;4.80;77.88
44138;BME280;29800;55.942;37.314;2023-12-20T04:50:23;97586.13;;;4.73;77.61
44138;BME280;29800;55.942;37.314;2023-12-20T04:52:50;97581.22;;;4.70;77.38
44138;BME280;29800;55.942;37.314;2023-12-20T04:55:16;97589.59;;;4.63;77.65
44138;BME280;29800;55.942;37.314;2023-12-20T04:57:44;97594.47;;;4.61;77.79
44138;BME280;29800;55.942;37.314;2023-12-20T05:00:10;97593.63;;;4.60;78.04
44138;BME280;29800;55.942;37.314;2023-12-20T05:02:37;97586.06;;;4.63;77.65
44138;BME280;29800;55.942;37.314;2023-12-20T05:05:03;97579.31;;;4.65;77.06
44138;BME280;29800;55.942;37.314;2023-12-20T05:07:30;97583.38;;;4.68;77.12
44138;BME280;29800;55.942;37.314;2023-12-20T05:09:56;97588.84;;;4.78;75.92
44138;BME280;29800;55.942;37.314;2023-12-20T05:12:22;97582.88;;;4.71;75.81
44138;BME280;29800;55.942;37.314;2023-12-20T05:14:48;97582.22;;;4.53;75.75
44138;BME280;29800;55.942;37.314;2023-12-20T05:17:15;97594.34;;;4.40;76.33
44138;BME280;29800;55.942;37.314;2023-12-20T05:19:41;97602.13;;;4.27;76.59
44138;BME280;29800;55.942;37.314;2023-12-20T05:22:07;97603.69;;;4.17;77.28
44138;BME280;29800;55.942;37.314;2023-12-20T05:24:33;97601.44;;;4.04;77.56
44138;BME280;29800;55.942;37.314;2023-12-20T05:27:00;97594.84;;;3.95;78.03
44138;BME280;29800;55.942;37.314;2023-12-20T05:29:26;97601.31;;;3.89;78.04
44138;BME280;29800;55.942;37.314;2023-12-20T05:31:52;97602.56;;;3.76;78.41
44138;BME280;29800;55.942;37.314;2023-12-20T05:34:18;97609.25;;;3.68;78.80
44138;BME280;29800;55.942;37.314;2023-12-20T05:36:45;97623.25;;;3.60;78.92
44138;BME280;29800;55.942;37.314;2023-12-20T05:39:11;97618.06;;;3.53;79.15
44138;BME280;29800;55.942;37.314;2023-12-20T05:41:37;97618.78;;;3.43;79.55
44138;BME280;29800;55.942;37.314;2023-12-20T05:44:04;97613.31;;;3.38;80.34
44138;BME280;29800;55.942;37.314;2023-12-20T05:46:30;97608.06;;;3.26;80.25
44138;BME280;29800;55.942;37.314;2023-12-20T05:48:56;97610.44;;;3.23;81.21
44138;BME280;29800;55.942;37.314;2023-12-20T05:51:22;97610.38;;;3.18;81.08
44138;BME280;29800;55.942;37.314;2023-12-20T05:53:48;97614.94;;;3.12;81.62
44138;BME280;29800;55.942;37.314;2023-12-20T05:56:15;97614.03;;;3.06;81.99
44138;BME280;29800;55.942;37.314;2023-12-20T05:58:42;97611.28;;;3.01;82.44
44138;BME280;29800;55.942;37.314;2023-12-20T06:01:08;97609.69;;;3.00;82.38
44138;BME280;29800;55.942;37.314;2023-12-20T06:03:34;97605.84;;;2.96;82.75
44138;BME280;29800;55.942;37.314;2023-12-20T06:06:06;97605.28;;;2.94;83.04
44138;BME280;29800;55.942;37.314;2023-12-20T06:08:33;97610.03;;;2.87;83.33
44138;BME280;29800;55.942;37.314;2023-12-20T06:10:59;97610.56;;;2.84;83.38
44138;BME280;29800;55.942;37.314;2023-12-20T06:13:25;97609.16;;;2.81;83.55
44138;BME280;29800;55.942;37.314;2023-12-20T06:15:51;97619.16;;;2.81;84.18
44138;BME280;29800;55.942;37.314;2023-12-20T06:18:17;97614.81;;;2.80;84.16
44138;BME280;29800;55.942;37.314;2023-12-20T06:20:44;97616.97;;;2.78;84.87
44138;BME280;29800;55.942;37.314;2023-12-20T06:23:10;97622.38;;;2.78;85.16
44138;BME280;29800;55.942;37.314;2023-12-20T06:25:37;97620.22;;;2.80;85.03
44138;BME280;29800;55.942;37.314;2023-12-20T06:28:03;97624.81;;;2.79;85.00
44138;BME280;29800;55.942;37.314;2023-12-20T06:30:30;97618.59;;;2.79;85.69
44138;BME280;29800;55.942;37.314;2023-12-20T06:32:58;97626.69;;;2.79;85.32
44138;BME280;29800;55.942;37.314;2023-12-20T06:35:24;97630.47;;;2.78;85.61
44138;BME280;29800;55.942;37.314;2023-12-20T06:37:51;97628.03;;;2.76;86.15
44138;BME280;29800;55.942;37.314;2023-12-20T06:40:18;97623.94;;;2.73;86.00
44138;BME280;29800;55.942;37.314;2023-12-20T06:42:45;97626.88;;;2.72;86.05
44138;BME280;29800;55.942;37.314;2023-12-20T06:45:12;97632.88;;;2.74;86.57
44138;BME280;29800;55.942;37.314;2023-12-20T06:47:38;97629.34;;;2.73;86.17
44138;BME280;29800;55.942;37.314;2023-12-20T06:50:05;97626.63;;;2.73;86.74
44138;BME280;29800;55.942;37.314;2023-12-20T06:52:31;97624.19;;;2.72;86.33
44138;BME280;29800;55.942;37.314;2023-12-20T06:54:57;97625.31;;;2.76;86.80
44138;BME280;29800;55.942;37.314;2023-12-20T06:57:24;97625.31;;;2.76;86.83
44138;BME280;29800;55.942;37.314;2023-12-20T06:59:53;97630.47;;;2.78;86.68
44138;BME280;29800;55.942;37.314;2023-12-20T07:02:19;97632.63;;;2.75;86.54
44138;BME280;29800;55.942;37.314;2023-12-20T07:04:46;97632.63;;;2.75;86.61
44138;BME280;29800;55.942;37.314;2023-12-20T07:07:12;97624.50;;;2.75;86.37
44138;BME280;29800;55.942;37.314;2023-12-20T07:09:38;97631.03;;;2.80;86.79
44138;BME280;29800;55.942;37.314;2023-12-20T07:12:04;97632.69;;;2.81;86.54
44138;BME280;29800;55.942;37.314;2023-12-20T07:14:31;97635.38;;;2.81;87.15
44138;BME280;29800;55.942;37.314;2023-12-20T07:16:57;97644.00;;;2.78;86.90
44138;BME280;29800;55.942;37.314;2023-12-20T07:19:23;97653.97;;;2.77;86.91
44138;BME280;29800;55.942;37.314;2023-12-20T07:21:50;97647.25;;;2.80;86.81
44138;BME280;29800;55.942;37.314;2023-12-20T07:24:16;97635.03;;;2.77;86.82
44138;BME280;29800;55.942;37.314;2023-12-20T07:26:42;97637.50;;;2.79;87.56
44138;BME280;29800;55.942;37.314;2023-12-20T07:29:08;97642.16;;;2.83;87.19
44138;BME280;29800;55.942;37.314;2023-12-20T07:31:35;97637.84;;;2.82;86.91
44138;BME280;29800;55.942;37.314;2023-12-20T07:34:01;97656.75;;;2.82;87.32
44138;BME280;29800;55.942;37.314;2023-12-20T07:36:27;97651.09;;;2.84;87.47
44138;BME280;29800;55.942;37.314;2023-12-20T07:38:53;97659.75;;;2.86;86.94
44138;BME280;29800;55.942;37.314;2023-12-20T07:41:20;97654.91;;;2.88;87.40
44138;BME280;29800;55.942;37.314;2023-12-20T07:43:47;97655.47;;;2.90;87.16
44138;BME280;29800;55.942;37.314;2023-12-20T07:46:13;97656.06;;;2.92;86.98
44138;BME280;29800;55.942;37.314;2023-12-20T07:48:39;97660.13;;;2.94;87.21
44138;BME280;29800;55.942;37.314;2023-12-20T07:51:07;97656.63;;;2.94;86.30
44138;BME280;29800;55.942;37.314;2023-12-20T07:53:35;97659.06;;;2.96;86.93
44138;BME280;29800;55.942;37.314;2023-12-20T07:56:01;97668.31;;;3.00;86.66
44138;BME280;29800;55.942;37.314;2023-12-20T07:58:27;97673.72;;;3.00;86.15
44138;BME280;29800;55.942;37.314;2023-12-20T08:00:55;97673.75;;;3.05;86.03
44138;BME280;29800;55.942;37.314;2023-12-20T08:03:22;97679.25;;;3.10;86.11
44138;BME280;29800;55.942;37.314;2023-12-20T08:05:48;97687.69;;;3.13;86.10
44138;BME280;29800;55.942;37.314;2023-12-20T08:08:14;97686.59;;;3.15;86.03
44138;BME280;29800;55.942;37.314;2023-12-20T08:10:40;97681.19;;;3.15;85.82
44138;BME280;29800;55.942;37.314;2023-12-20T08:43:37;97672.66;;;3.50;87.74
44138;BME280;29800;55.942;37.314;2023-12-20T08:46:06;97679.97;;;3.49;86.18
44138;BME280;29800;55.942;37.314;2023-12-20T08:48:32;97680.28;;;3.53;85.24
44138;BME280;29800;55.942;37.314;2023-12-20T08:50:58;97680.03;;;3.55;84.68
44138;BME280;29800;55.942;37.314;2023-12-20T08:53:25;97670.00;;;3.55;84.56
44138;BME280;29800;55.942;37.314;2023-12-20T08:55:51;97669.16;;;3.49;84.41
44138;BME280;29800;55.942;37.314;2023-12-20T08:58:18;97666.94;;;3.46;84.28
44138;BME280;29800;55.942;37.314;2023-12-20T09:00:45;97663.41;;;3.46;84.01
44138;BME280;29800;55.942;37.314;2023-12-20T09:03:11;97666.13;;;3.46;84.44
44138;BME280;29800;55.942;37.314;2023-12-20T09:05:38;97666.66;;;3.43;84.36
44138;BME280;29800;55.942;37.314;2023-12-20T09:08:05;97660.72;;;3.46;84.26
44138;BME280;29800;55.942;37.314;2023-12-20T09:10:34;97653.97;;;3.48;84.42
44138;BME280;29800;55.942;37.314;2023-12-20T09:13:00;97659.41;;;3.48;84.45
44138;BME280;29800;55.942;37.314;2023-12-20T09:15:28;97664.81;;;3.48;84.82
44138;BME280;29800;55.942;37.314;2023-12-20T09:17:56;97668.06;;;3.50;84.76
44138;BME280;29800;55.942;37.314;2023-12-20T09:20:23;97671.34;;;3.53;84.75
44138;BME280;29800;55.942;37.314;2023-12-20T09:22:49;97664.28;;;3.52;84.65
44138;BME280;29800;55.942;37.314;2023-12-20T09:25:16;97668.13;;;3.56;84.93
44138;BME280;29800;55.942;37.314;2023-12-20T09:27:45;97664.34;;;3.57;84.84
44138;BME280;29800;55.942;37.314;2023-12-20T09:30:12;97658.38;;;3.55;84.80
44138;BME280;29800;55.942;37.314;2023-12-20T09:32:39;97661.09;;;3.55;84.92
44138;BME280;29800;55.942;37.314;2023-12-20T09:35:05;97660.00;;;3.56;85.00
44138;BME280;29800;55.942;37.314;2023-12-20T09:37:33;97665.41;;;3.56;84.93
44138;BME280;29800;55.942;37.314;2023-12-20T09:39:59;97662.97;;;3.54;85.17
44138;BME280;29800;55.942;37.314;2023-12-20T09:42:39;97673.78;;;3.54;85.04
44138;BME280;29800;55.942;37.314;2023-12-20T09:45:13;97671.84;;;3.49;85.19
44138;BME280;29800;55.942;37.314;2023-12-20T09:47:43;97670.47;;;3.47;85.45
44138;BME280;29800;55.942;37.314;2023-12-20T09:50:10;97661.00;;;3.44;85.45
44138;BME280;29800;55.942;37.314;2023-12-20T09:52:39;97653.94;;;3.43;85.50
44138;BME280;29800;55.942;37.314;2023-12-20T09:55:06;97647.47;;;3.44;85.80
44138;BME280;29800;55.942;37.314;2023-12-20T09:57:39;97641.22;;;3.44;86.04
44138;BME280;29800;55.942;37.314;2023-12-20T10:00:06;97644.47;;;3.46;85.94
44138;BME280;29800;55.942;37.314;2023-12-20T10:02:59;97641.59;;;3.53;85.62
44138;BME280;29800;55.942;37.314;2023-12-20T10:05:32;97648.56;;;3.48;86.02
44138;BME280;29800;55.942;37.314;2023-12-20T10:08:00;97661.03;;;3.49;86.09
44138;BME280;29800;55.942;37.314;2023-12-20T10:10:27;97662.09;;;3.48;85.89
44138;BME280;29800;55.942;37.314;2023-12-20T10:13:11;97673.53;;;3.56;86.35
44138;BME280;29800;55.942;37.314;2023-12-20T10:15:38;97670.50;;;3.52;85.87
44138;BME280;29800;55.942;37.314;2023-12-20T10:18:05;97672.41;;;3.52;86.23
44138;BME280;29800;55.942;37.314;2023-12-20T10:20:33;97677.25;;;3.49;85.77
44138;BME280;29800;55.942;37.314;2023-12-20T10:23:00;97670.22;;;3.48;86.11
44138;BME280;29800;55.942;37.314;2023-12-20T10:25:27;97669.41;;;3.48;85.93
44138;BME280;29800;55.942;37.314;2023-12-20T10:28:14;97670.00;;;3.55;86.08
44138;BME280;29800;55.942;37.314;2023-12-20T10:30:43;97672.66;;;3.50;85.94
44138;BME280;29800;55.942;37.314;2023-12-20T10:33:10;97668.56;;;3.47;86.32
44138;BME280;29800;55.942;37.314;2023-12-20T10:35:38;97672.16;;;3.53;86.30
44138;BME280;29800;55.942;37.314;2023-12-20T10:38:06;97673.22;;;3.52;86.01
44138;BME280;29800;55.942;37.314;2023-12-20T10:40:36;97665.41;;;3.56;85.98
44138;BME280;29800;55.942;37.314;2023-12-20T10:43:03;97674.63;;;3.55;85.97
44138;BME280;29800;55.942;37.314;2023-12-20T10:45:30;97664.56;;;3.50;85.99
44138;BME280;29800;55.942;37.314;2023-12-20T10:47:58;97656.69;;;3.48;86.28
44138;BME280;29800;55.942;37.314;2023-12-20T10:50:28;97657.25;;;3.50;86.32
44138;BME280;29800;55.942;37.314;2023-12-20T10:52:56;97658.34;;;3.49;85.81
44138;BME280;29800;55.942;37.314;2023-12-20T10:55:23;97655.88;;;3.48;85.77
44138;BME280;29800;55.942;37.314;2023-12-20T10:58:16;97655.69;;;3.55;85.97
44138;BME280;29800;55.942;37.314;2023-12-20T11:00:47;97661.59;;;3.52;86.05
44138;BME280;29800;55.942;37.314;2023-12-20T11:03:17;97651.59;;;3.52;85.62
44138;BME280;29800;55.942;37.314;2023-12-20T11:05:58;97667.06;;;3.57;85.96
44138;BME280;29800;55.942;37.314;2023-12-20T11:12:02;97677.06;;;3.56;85.49
44138;BME280;29800;55.942;37.314;2023-12-20T11:14:45;97674.63;;;3.55;85.58
44138;BME280;29800;55.942;37.314;2023-12-20T11:17:13;97671.84;;;3.49;85.50
44138;BME280;29800;55.942;37.314;2023-12-20T11:22:27;97678.06;;;3.50;85.97
44138;BME280;29800;55.942;37.314;2023-12-20T11:25:14;97669.19;;;3.55;86.09
44138;BME280;29800;55.942;37.314;2023-12-20T11:27:41;97674.56;;;3.49;85.84
44138;BME280;29800;55.942;37.314;2023-12-20T11:30:12;97661.03;;;3.49;85.78
44138;BME280;29800;55.942;37.314;2023-12-20T11:32:41;97668.56;;;3.47;85.88
44138;BME280;29800;55.942;37.314;2023-12-20T11:37:38;97679.09;;;3.44;86.35
44138;BME280;29800;55.942;37.314;2023-12-20T11:40:07;97672.38;;;3.46;86.78
44138;BME280;29800;55.942;37.314;2023-12-20T11:42:42;97679.13;;;3.49;86.42
44138;BME280;29800;55.942;37.314;2023-12-20T11:45:14;97682.19;;;3.53;86.18
44138;BME280;29800;55.942;37.314;2023-12-20T11:47:51;97671.41;;;3.58;86.58
44138;BME280;29800;55.942;37.314;2023-12-20T11:50:20;97683.78;;;3.54;86.15
44138;BME280;29800;55.942;37.314;2023-12-20T11:52:48;97683.28;;;3.57;86.25
44138;BME280;29800;55.942;37.314;2023-12-20T11:55:15;97698.50;;;3.63;86.05
44138;BME280;29800;55.942;37.314;2023-12-20T11:57:42;97698.25;;;3.64;86.09
44138;BME280;29800;55.942;37.314;2023-12-20T12:00:09;97698.00;;;3.66;85.95
44138;BME280;29800;55.942;37.314;2023-12-20T12:02:39;97697.75;;;3.67;85.69
44138;BME280;29800;55.942;37.314;2023-12-20T12:05:06;97696.94;;;3.72;85.59
44138;BME280;29800;55.942;37.314;2023-12-20T12:07:34;97698.09;;;3.76;85.57
44138;BME280;29800;55.942;37.314;2023-12-20T12:10:01;97698.34;;;3.75;85.32
44138;BME280;29800;55.942;37.314;2023-12-20T12:12:29;97698.66;;;3.78;85.06
44138;BME280;29800;55.942;37.314;2023-12-20T12:14:57;97703.00;;;3.79;85.10
44138;BME280;29800;55.942;37.314;2023-12-20T12:17:24;97701.91;;;3.80;84.68
44138;BME280;29800;55.942;37.314;2023-12-20T12:20:05;97704.44;;;3.87;84.62
44138;BME280;29800;55.942;37.314;2023-12-20T12:22:32;97703.03;;;3.84;84.47
44138;BME280;29800;55.942;37.314;2023-12-20T12:25:09;97708.25;;;3.91;84.63
44138;BME280;29800;55.942;37.314;2023-12-20T12:27:37;97707.41;;;3.85;84.56
44138;BME280;29800;55.942;37.314;2023-12-20T12:30:05;97721.47;;;3.88;84.56
44138;BME280;29800;55.942;37.314;2023-12-20T12:32:36;97723.09;;;3.89;84.32
44138;BME280;29800;55.942;37.314;2023-12-20T12:35:04;97725.00;;;3.88;84.17
44138;BME280;29800;55.942;37.314;2023-12-20T12:37:38;97724.44;;;3.86;84.09
44138;BME280;29800;55.942;37.314;2023-12-20T12:40:07;97723.09;;;3.89;84.06
44138;BME280;29800;55.942;37.314;2023-12-20T12:42:37;97737.22;;;3.91;83.95
44138;BME280;29800;55.942;37.314;2023-12-20T12:45:04;97735.56;;;3.90;83.76
44138;BME280;29800;55.942;37.314;2023-12-20T12:47:31;97726.09;;;3.87;83.71
44138;BME280;29800;55.942;37.314;2023-12-20T12:49:58;97732.31;;;3.88;83.38
44138;BME280;29800;55.942;37.314;2023-12-20T12:52:25;97731.50;;;3.87;83.79
44138;BME280;29800;55.942;37.314;2023-12-20T12:54:53;97734.47;;;3.85;83.18
44138;BME280;29800;55.942;37.314;2023-12-20T12:57:19;97728.50;;;3.89;83.65
44138;BME280;29800;55.942;37.314;2023-12-20T12:59:46;97729.34;;;3.89;82.92
44138;BME280;29800;55.942;37.314;2023-12-20T13:02:14;97735.56;;;3.90;83.52
44138;BME280;29800;55.942;37.314;2023-12-20T13:04:41;97723.88;;;3.84;83.28
44138;BME280;29800;55.942;37.314;2023-12-20T13:07:10;97714.63;;;3.80;83.02
44138;BME280;29800;55.942;37.314;2023-12-20T13:09:38;97718.09;;;3.75;82.79
44138;BME280;29800;55.942;37.314;2023-12-20T13:12:09;97718.69;;;3.77;82.93
44138;BME280;29800;55.942;37.314;2023-12-20T13:14:36;97705.06;;;3.72;82.73
44138;BME280;29800;55.942;37.314;2023-12-20T13:17:07;97699.94;;;3.71;82.59
44138;BME280;29800;55.942;37.314;2023-12-20T13:19:33;97694.19;;;3.67;82.17
44138;BME280;29800;55.942;37.314;2023-12-20T13:22:00;97692.00;;;3.64;82.38
44138;BME280;29800;55.942;37.314;2023-12-20T13:24:27;97691.69;;;3.60;82.67
44138;BME280;29800;55.942;37.314;2023-12-20T13:26:53;97687.03;;;3.56;82.30
44138;BME280;29800;55.942;37.314;2023-12-20T13:29:20;97699.47;;;3.52;82.27
44138;BME280;29800;55.942;37.314;2023-12-20T13:31:48;97698.91;;;3.49;82.46
44138;BME280;29800;55.942;37.314;2023-12-20T13:34:15;97692.66;;;3.49;82.45
44138;BME280;29800;55.942;37.314;2023-12-20T13:36:43;97697.75;;;3.45;82.50
44138;BME280;29800;55.942;37.314;2023-12-20T13:39:13;97699.66;;;3.45;82.94